createdAt,value
2018-03-31T00:00:17.000Z,98571
2018-03-31T00:02:17.000Z,98574
2018-03-31T00:03:17.000Z,98573
2018-03-31T00:04:17.000Z,98574
2018-03-31T00:06:17.000Z,98574
2018-03-31T00:08:17.000Z,98580
2018-03-31T00:10:17.000Z,98585
2018-03-31T00:12:02.000Z,98592
2018-03-31T00:13:17.000Z,98589
2018-03-31T00:15:17.000Z,98590
2018-03-31T00:17:17.000Z,98588
2018-03-31T00:18:46.000Z,98587
2018-03-31T00:20:17.000Z,98587
2018-03-31T00:22:17.000Z,98588
2018-03-31T00:24:17.000Z,98589
2018-03-31T00:26:02.000Z,98588
2018-03-31T00:27:17.000Z,98585
2018-03-31T00:29:17.000Z,98593
2018-03-31T00:30:17.000Z,98594
2018-03-31T00:32:17.000Z,98593
2018-03-31T00:34:17.000Z,98594
2018-03-31T00:35:17.000Z,98590
2018-03-31T00:36:17.000Z,98581
2018-03-31T00:38:02.000Z,98591
2018-03-31T00:39:17.000Z,98595
2018-03-31T00:40:17.000Z,98591
2018-03-31T00:42:17.000Z,98594
2018-03-31T00:44:17.000Z,98592
2018-03-31T00:46:17.000Z,98596
2018-03-31T00:48:17.000Z,98589
2018-03-31T00:49:17.000Z,98592
2018-03-31T00:50:17.000Z,98587
2018-03-31T00:52:02.000Z,98584
2018-03-31T00:53:17.000Z,98592
2018-03-31T00:54:17.000Z,98592
2018-03-31T00:55:17.000Z,98591
2018-03-31T00:57:17.000Z,98576
2018-03-31T00:59:17.000Z,98581
2018-03-31T01:00:17.000Z,98582
2018-03-31T01:02:17.000Z,98584
2018-03-31T01:04:17.000Z,98590
2018-03-31T01:05:17.000Z,98588
2018-03-31T01:07:17.000Z,98585
2018-03-31T01:08:17.000Z,98587
2018-03-31T01:10:17.000Z,98576
2018-03-31T01:11:17.000Z,98578
2018-03-31T01:12:17.000Z,98575
2018-03-31T01:14:17.000Z,98570
2018-03-31T01:16:17.000Z,98570
2018-03-31T01:18:17.000Z,98561
2018-03-31T01:19:17.000Z,98573
2018-03-31T01:21:17.000Z,98570
2018-03-31T01:23:17.000Z,98569
2018-03-31T01:25:17.000Z,98574
2018-03-31T01:27:17.000Z,98575
2018-03-31T01:28:17.000Z,98576
2018-03-31T01:30:17.000Z,98579
2018-03-31T01:31:17.000Z,98583
2018-03-31T01:33:17.000Z,98583
2018-03-31T01:35:02.000Z,98582
2018-03-31T01:36:17.000Z,98588
2018-03-31T01:38:17.000Z,98587
2018-03-31T01:39:17.000Z,98590
2018-03-31T01:41:17.000Z,98589
2018-03-31T01:43:17.000Z,98583
2018-03-31T01:45:17.000Z,98585
2018-03-31T01:47:17.000Z,98585
2018-03-31T01:49:02.000Z,98582
2018-03-31T01:50:17.000Z,98590
2018-03-31T01:52:17.000Z,98598
2018-03-31T01:54:17.000Z,98598
2018-03-31T01:56:17.000Z,98593
2018-03-31T01:57:17.000Z,98592
2018-03-31T01:58:17.000Z,98588
2018-03-31T01:59:17.000Z,98588
2018-03-31T02:01:01.000Z,98587
2018-03-31T02:02:17.000Z,98586
2018-03-31T02:04:17.000Z,98593
2018-03-31T02:05:17.000Z,98589
2018-03-31T02:07:01.000Z,98583
2018-03-31T02:08:17.000Z,98586
2018-03-31T02:10:17.000Z,98593
2018-03-31T02:12:17.000Z,98586
2018-03-31T02:13:17.000Z,98585
2018-03-31T02:15:17.000Z,98585
2018-03-31T02:17:17.000Z,98582
2018-03-31T02:18:17.000Z,98582
2018-03-31T02:20:01.000Z,98575
2018-03-31T02:21:17.000Z,98572
2018-03-31T02:23:17.000Z,98575
2018-03-31T02:25:17.000Z,98577
2018-03-31T02:27:17.000Z,98574
2018-03-31T02:28:17.000Z,98575
2018-03-31T02:29:17.000Z,98575
2018-03-31T02:30:17.000Z,98572
2018-03-31T02:32:17.000Z,98571
2018-03-31T02:33:17.000Z,98574
2018-03-31T02:35:01.000Z,98576
2018-03-31T02:36:17.000Z,98576
2018-03-31T02:38:01.000Z,98568
2018-03-31T02:39:17.000Z,98570
2018-03-31T02:40:17.000Z,98573
2018-03-31T02:42:17.000Z,98575
2018-03-31T02:43:17.000Z,98577
2018-03-31T02:45:01.000Z,98576
2018-03-31T02:46:17.000Z,98575
2018-03-31T02:47:17.000Z,98570
2018-03-31T02:49:02.000Z,98573
2018-03-31T02:50:17.000Z,98574
2018-03-31T02:52:17.000Z,98568
2018-03-31T02:54:17.000Z,98572
2018-03-31T02:56:17.000Z,98577
2018-03-31T02:58:17.000Z,98577
2018-03-31T03:00:17.000Z,98580
2018-03-31T03:01:17.000Z,98584
2018-03-31T03:03:17.000Z,98586
2018-03-31T03:05:17.000Z,98584
2018-03-31T03:07:17.000Z,98588
2018-03-31T03:08:17.000Z,98586
2018-03-31T03:09:17.000Z,98578
2018-03-31T03:11:01.000Z,98580
2018-03-31T03:12:17.000Z,98580
2018-03-31T03:14:01.000Z,98584
2018-03-31T03:17:17.000Z,98585
2018-03-31T03:19:17.000Z,98587
2018-03-31T03:20:17.000Z,98586
2018-03-31T03:22:17.000Z,98589
2018-03-31T03:24:17.000Z,98582
2018-03-31T03:26:17.000Z,98589
2018-03-31T03:27:17.000Z,98581
2018-03-31T03:29:17.000Z,98584
2018-03-31T03:31:17.000Z,98596
2018-03-31T03:33:17.000Z,98599
2018-03-31T03:35:17.000Z,98604
2018-03-31T03:37:01.000Z,98604
2018-03-31T03:38:17.000Z,98597
2018-03-31T03:40:17.000Z,98597
2018-03-31T03:41:17.000Z,98601
2018-03-31T03:43:17.000Z,98602
2018-03-31T03:45:01.000Z,98606
2018-03-31T03:46:17.000Z,98606
2018-03-31T03:48:17.000Z,98614
2018-03-31T03:50:17.000Z,98621
2018-03-31T03:52:01.000Z,98620
2018-03-31T03:53:17.000Z,98620
2018-03-31T03:55:17.000Z,98623
2018-03-31T03:57:17.000Z,98630
2018-03-31T03:59:17.000Z,98635
2018-03-31T04:01:17.000Z,98640
2018-03-31T04:02:17.000Z,98635
2018-03-31T04:04:17.000Z,98635
2018-03-31T04:06:17.000Z,98638
2018-03-31T04:08:17.000Z,98642
2018-03-31T04:09:17.000Z,98637
2018-03-31T04:11:17.000Z,98634
2018-03-31T04:13:02.000Z,98639
2018-03-31T04:14:17.000Z,98641
2018-03-31T04:16:02.000Z,98635
2018-03-31T04:17:17.000Z,98636
2018-03-31T04:19:02.000Z,98638
2018-03-31T04:20:17.000Z,98640
2018-03-31T04:22:17.000Z,98640
2018-03-31T04:24:17.000Z,98643
2018-03-31T04:25:17.000Z,98637
2018-03-31T04:27:02.000Z,98643
2018-03-31T04:28:17.000Z,98640
2018-03-31T04:30:17.000Z,98641
2018-03-31T04:31:17.000Z,98642
2018-03-31T04:33:17.000Z,98645
2018-03-31T04:34:17.000Z,98641
2018-03-31T04:36:17.000Z,98642
2018-03-31T04:38:17.000Z,98635
2018-03-31T04:40:17.000Z,98640
2018-03-31T04:41:17.000Z,98630
2018-03-31T04:43:17.000Z,98630
2018-03-31T04:44:17.000Z,98632
2018-03-31T04:46:17.000Z,98626
2018-03-31T04:48:17.000Z,98625
2018-03-31T04:49:17.000Z,98618
2018-03-31T04:50:17.000Z,98621
2018-03-31T04:52:02.000Z,98617
2018-03-31T04:53:17.000Z,98624
2018-03-31T04:55:17.000Z,98620
2018-03-31T04:56:46.000Z,98626
2018-03-31T04:58:17.000Z,98621
2018-03-31T05:00:17.000Z,98623
2018-03-31T05:01:17.000Z,98620
2018-03-31T05:03:17.000Z,98619
2018-03-31T05:05:17.000Z,98627
2018-03-31T05:07:02.000Z,98624
2018-03-31T05:08:17.000Z,98631
2018-03-31T05:09:17.000Z,98630
2018-03-31T05:11:17.000Z,98638
2018-03-31T05:13:17.000Z,98637
2018-03-31T05:14:17.000Z,98638
2018-03-31T05:16:17.000Z,98635
2018-03-31T05:17:17.000Z,98639
2018-03-31T05:18:17.000Z,98640
2018-03-31T05:20:17.000Z,98642
2018-03-31T05:22:17.000Z,98649
2018-03-31T05:24:17.000Z,98652
2018-03-31T05:26:02.000Z,98653
2018-03-31T05:27:17.000Z,98654
2018-03-31T05:29:17.000Z,98650
2018-03-31T05:30:17.000Z,98650
2018-03-31T05:31:17.000Z,98653
2018-03-31T05:33:17.000Z,98651
2018-03-31T05:34:17.000Z,98653
2018-03-31T05:36:17.000Z,98649
2018-03-31T05:38:17.000Z,98652
2018-03-31T05:40:02.000Z,98648
2018-03-31T05:41:17.000Z,98655
2018-03-31T05:42:17.000Z,98651
2018-03-31T05:44:17.000Z,98649
2018-03-31T05:46:17.000Z,98645
2018-03-31T05:47:17.000Z,98648
2018-03-31T05:49:17.000Z,98654
2018-03-31T05:50:17.000Z,98651
2018-03-31T06:28:06.000Z,98664
2018-03-31T06:29:52.000Z,98656
2018-03-31T06:31:52.000Z,98657
2018-03-31T06:32:52.000Z,98659
2018-03-31T06:34:52.000Z,98661
2018-03-31T06:35:52.000Z,98657
2018-03-31T06:37:52.000Z,98657
2018-03-31T06:38:52.000Z,98662
2018-03-31T06:40:52.000Z,98667
2018-03-31T06:42:52.000Z,98663
2018-03-31T06:43:52.000Z,98667
2018-03-31T06:45:52.000Z,98670
2018-03-31T06:47:52.000Z,98680
2018-03-31T06:49:36.000Z,98677
2018-03-31T06:50:52.000Z,98674
2018-03-31T06:52:52.000Z,98681
2018-03-31T06:54:52.000Z,98681
2018-03-31T06:56:52.000Z,98688
2018-03-31T06:58:36.000Z,98688
2018-03-31T06:59:36.000Z,98688
2018-03-31T07:00:52.000Z,98686
2018-03-31T07:02:52.000Z,98689
2018-03-31T07:04:52.000Z,98688
2018-03-31T07:05:52.000Z,98692
2018-03-31T07:07:52.000Z,98690
2018-03-31T07:08:52.000Z,98693
2018-03-31T07:10:21.000Z,98695
2018-03-31T07:11:52.000Z,98690
2018-03-31T07:13:51.000Z,98691
2018-03-31T07:15:51.000Z,98693
2018-03-31T07:17:51.000Z,98694
2018-03-31T07:19:51.000Z,98692
2018-03-31T07:21:36.000Z,98695
2018-03-31T07:22:51.000Z,98694
2018-03-31T07:23:51.000Z,98696
2018-03-31T07:25:51.000Z,98693
2018-03-31T07:27:51.000Z,98688
2018-03-31T07:28:51.000Z,98687
2018-03-31T07:30:51.000Z,98689
2018-03-31T07:32:36.000Z,98677
2018-03-31T07:33:51.000Z,98679
2018-03-31T07:34:51.000Z,98682
2018-03-31T07:36:51.000Z,98683
2018-03-31T07:38:51.000Z,98683
2018-03-31T07:40:51.000Z,98690
2018-03-31T07:42:51.000Z,98690
2018-03-31T07:44:51.000Z,98689
2018-03-31T07:45:51.000Z,98687
2018-03-31T07:47:51.000Z,98689
2018-03-31T07:49:51.000Z,98693
2018-03-31T07:50:51.000Z,98694
2018-03-31T07:51:51.000Z,98689
2018-03-31T07:53:36.000Z,98692
2018-03-31T07:55:51.000Z,98688
2018-03-31T07:57:51.000Z,98688
2018-03-31T07:59:51.000Z,98684
2018-03-31T08:01:51.000Z,98683
2018-03-31T08:03:51.000Z,98685
2018-03-31T08:04:51.000Z,98685
2018-03-31T08:06:51.000Z,98685
2018-03-31T08:08:51.000Z,98685
2018-03-31T08:10:51.000Z,98684
2018-03-31T08:11:51.000Z,98678
2018-03-31T08:13:36.000Z,98587
2018-03-31T08:14:51.000Z,98682
2018-03-31T08:16:51.000Z,98683
2018-03-31T08:17:51.000Z,98685
2018-03-31T08:18:51.000Z,98681
2018-03-31T08:20:51.000Z,98676
2018-03-31T08:22:51.000Z,98677
2018-03-31T08:24:51.000Z,98675
2018-03-31T08:26:51.000Z,98678
2018-03-31T08:27:51.000Z,98681
2018-03-31T08:28:51.000Z,98676
2018-03-31T08:30:51.000Z,98681
2018-03-31T08:32:51.000Z,98684
2018-03-31T08:34:51.000Z,98683
2018-03-31T08:36:51.000Z,98687
2018-03-31T08:38:51.000Z,98684
2018-03-31T08:40:36.000Z,98683
2018-03-31T08:41:51.000Z,98684
2018-03-31T08:42:51.000Z,98685
2018-03-31T08:43:51.000Z,98685
2018-03-31T08:45:36.000Z,98687
2018-03-31T08:46:51.000Z,98689
2018-03-31T08:47:51.000Z,98692
2018-03-31T08:49:36.000Z,98682
2018-03-31T08:50:51.000Z,98681
2018-03-31T08:52:36.000Z,98685
2018-03-31T08:53:51.000Z,98681
2018-03-31T08:55:51.000Z,98683
2018-03-31T08:57:51.000Z,98680
2018-03-31T08:59:51.000Z,98684
2018-03-31T09:01:36.000Z,98675
2018-03-31T09:02:51.000Z,98684
2018-03-31T09:04:36.000Z,98685
2018-03-31T09:06:51.000Z,98690
2018-03-31T09:08:51.000Z,98684
2018-03-31T09:10:36.000Z,98687
2018-03-31T09:11:51.000Z,98691
2018-03-31T09:12:51.000Z,98688
2018-03-31T09:13:51.000Z,98683
2018-03-31T09:15:51.000Z,98691
2018-03-31T09:17:51.000Z,98688
2018-03-31T09:19:51.000Z,98697
2018-03-31T09:20:51.000Z,98696
2018-03-31T09:22:51.000Z,98691
2018-03-31T09:23:51.000Z,98693
2018-03-31T09:25:51.000Z,98693
2018-03-31T09:27:51.000Z,98695
2018-03-31T09:29:51.000Z,98698
2018-03-31T09:31:36.000Z,98632
2018-03-31T09:32:51.000Z,98693
2018-03-31T09:34:51.000Z,98698
2018-03-31T09:36:51.000Z,98692
2018-03-31T09:37:51.000Z,98692
2018-03-31T09:38:51.000Z,98696
2018-03-31T09:39:51.000Z,98692
2018-03-31T09:41:51.000Z,98691
2018-03-31T09:43:51.000Z,98698
2018-03-31T09:45:35.000Z,98694
2018-03-31T09:46:51.000Z,98696
2018-03-31T09:47:51.000Z,98698
2018-03-31T09:49:51.000Z,98702
2018-03-31T09:51:36.000Z,98618
2018-03-31T09:52:51.000Z,98707
2018-03-31T09:54:35.000Z,98707
2018-03-31T09:55:51.000Z,98704
2018-03-31T09:56:51.000Z,98703
2018-03-31T09:58:35.000Z,98705
2018-03-31T09:59:51.000Z,98703
2018-03-31T10:01:51.000Z,98705
2018-03-31T10:02:51.000Z,98692
2018-03-31T10:03:51.000Z,98696
2018-03-31T10:04:51.000Z,98699
2018-03-31T10:05:51.000Z,98693
2018-03-31T10:07:51.000Z,98695
2018-03-31T10:09:51.000Z,98700
2018-03-31T10:11:51.000Z,98701
2018-03-31T10:13:51.000Z,98702
2018-03-31T10:15:51.000Z,98700
2018-03-31T10:17:51.000Z,98706
2018-03-31T10:19:35.000Z,98705
2018-03-31T10:20:51.000Z,98701
2018-03-31T10:22:51.000Z,98710
2018-03-31T10:24:52.000Z,98714
2018-03-31T10:26:36.000Z,98715
2018-03-31T10:27:52.000Z,98716
2018-03-31T10:29:36.000Z,98714
2018-03-31T10:30:52.000Z,98714
2018-03-31T10:32:52.000Z,98710
2018-03-31T10:33:52.000Z,98710
2018-03-31T10:34:52.000Z,98713
2018-03-31T10:36:52.000Z,98715
2018-03-31T10:38:52.000Z,98718
2018-03-31T10:40:52.000Z,98719
2018-03-31T10:42:36.000Z,98718
2018-03-31T10:43:52.000Z,98714
2018-03-31T10:45:52.000Z,98716
2018-03-31T10:47:52.000Z,98722
2018-03-31T10:49:36.000Z,98724
2018-03-31T10:50:52.000Z,98724
2018-03-31T10:52:52.000Z,98721
2018-03-31T10:54:52.000Z,98724
2018-03-31T10:55:52.000Z,98723
2018-03-31T10:57:52.000Z,98722
2018-03-31T10:59:52.000Z,98726
2018-03-31T11:01:21.000Z,98720
2018-03-31T11:02:52.000Z,98722
2018-03-31T11:03:52.000Z,98726
2018-03-31T11:05:52.000Z,98722
2018-03-31T11:06:52.000Z,98728
2018-03-31T11:08:52.000Z,98724
2018-03-31T11:10:37.000Z,98723
2018-03-31T11:11:52.000Z,98724
2018-03-31T11:12:52.000Z,98726
2018-03-31T11:14:52.000Z,98723
2018-03-31T11:15:52.000Z,98721
2018-03-31T11:17:52.000Z,98724
2018-03-31T11:19:52.000Z,98724
2018-03-31T11:20:52.000Z,98719
2018-03-31T11:22:36.000Z,98725
2018-03-31T11:23:36.000Z,98727
2018-03-31T11:24:52.000Z,98726
2018-03-31T11:26:52.000Z,98723
2018-03-31T11:28:36.000Z,98723
2018-03-31T11:29:51.000Z,98721
2018-03-31T11:30:51.000Z,98726
2018-03-31T11:31:51.000Z,98714
2018-03-31T11:33:51.000Z,98714
2018-03-31T11:34:51.000Z,98717
2018-03-31T11:36:51.000Z,98724
2018-03-31T11:38:36.000Z,98717
2018-03-31T11:39:51.000Z,98721
2018-03-31T11:41:36.000Z,98720
2018-03-31T11:42:51.000Z,98722
2018-03-31T11:44:51.000Z,98721
2018-03-31T11:46:51.000Z,98716
2018-03-31T11:48:51.000Z,98722
2018-03-31T11:50:51.000Z,98720
2018-03-31T11:54:51.000Z,98713
2018-03-31T11:56:37.000Z,98719
2018-03-31T11:58:37.000Z,98711
2018-03-31T12:00:37.000Z,98712
2018-03-31T12:01:37.000Z,98714
2018-03-31T12:03:37.000Z,98714
2018-03-31T12:05:37.000Z,98714
2018-03-31T12:07:37.000Z,98703
2018-03-31T12:09:37.000Z,98716
2018-03-31T12:11:37.000Z,98718
2018-03-31T12:12:37.000Z,98715
2018-03-31T12:14:22.000Z,98718
2018-03-31T12:15:37.000Z,98708
2018-03-31T12:17:37.000Z,98717
2018-03-31T12:19:37.000Z,98713
2018-03-31T12:21:37.000Z,98710
2018-03-31T12:22:37.000Z,98708
2018-03-31T12:24:37.000Z,98709
2018-03-31T12:25:37.000Z,98707
2018-03-31T12:27:37.000Z,98705
2018-03-31T12:29:37.000Z,98709
2018-03-31T12:31:37.000Z,98709
2018-03-31T12:33:37.000Z,98703
2018-03-31T12:34:37.000Z,98705
2018-03-31T12:36:37.000Z,98703
2018-03-31T12:38:37.000Z,98699
2018-03-31T12:40:37.000Z,98699
2018-03-31T12:42:37.000Z,98702
2018-03-31T12:44:37.000Z,98704
2018-03-31T12:45:37.000Z,98705
2018-03-31T12:46:37.000Z,98705
2018-03-31T12:48:37.000Z,98695
2018-03-31T12:50:37.000Z,98702
2018-03-31T12:52:22.000Z,98697
2018-03-31T12:53:37.000Z,98699
2018-03-31T12:55:37.000Z,98697
2018-03-31T12:57:37.000Z,98698
2018-03-31T12:58:37.000Z,98695
2018-03-31T13:00:37.000Z,98696
2018-03-31T13:01:37.000Z,98697
2018-03-31T13:03:37.000Z,98687
2018-03-31T13:05:06.000Z,98683
2018-03-31T13:06:37.000Z,98682
2018-03-31T13:08:37.000Z,98681
2018-03-31T13:10:37.000Z,98681
2018-03-31T13:12:06.000Z,98676
2018-03-31T13:13:37.000Z,98680
2018-03-31T13:14:37.000Z,98678
2018-03-31T13:16:37.000Z,98683
2018-03-31T13:18:22.000Z,98679
2018-03-31T13:19:37.000Z,98679
2018-03-31T13:20:37.000Z,98678
2018-03-31T13:21:37.000Z,98683
2018-03-31T13:23:37.000Z,98683
2018-03-31T13:24:37.000Z,98688
2018-03-31T13:26:37.000Z,98682
2018-03-31T13:28:37.000Z,98685
2018-03-31T13:30:37.000Z,98688
2018-03-31T13:32:37.000Z,98688
2018-03-31T13:34:22.000Z,98691
2018-03-31T13:35:37.000Z,98686
2018-03-31T13:37:22.000Z,98679
2018-03-31T13:38:37.000Z,98680
2018-03-31T13:40:37.000Z,98680
2018-03-31T13:42:37.000Z,98681
2018-03-31T13:44:37.000Z,98680
2018-03-31T13:46:37.000Z,98676
2018-03-31T13:48:37.000Z,98676
2018-03-31T13:50:37.000Z,98676
2018-03-31T13:52:37.000Z,98675
2018-03-31T13:54:37.000Z,98670
2018-03-31T13:56:22.000Z,98676
2018-03-31T13:57:37.000Z,98678
2018-03-31T14:02:37.000Z,98674
2018-03-31T14:04:23.000Z,98669
2018-03-31T14:06:23.000Z,98669
2018-03-31T14:07:23.000Z,98673
2018-03-31T14:09:23.000Z,98675
2018-03-31T14:11:23.000Z,98675
2018-03-31T14:13:23.000Z,98670
2018-03-31T14:15:23.000Z,98675
2018-03-31T14:16:23.000Z,98674
2018-03-31T14:18:07.000Z,98675
2018-03-31T14:19:23.000Z,98677
2018-03-31T14:21:23.000Z,98678
2018-03-31T14:23:23.000Z,98678
2018-03-31T14:25:07.000Z,98679
2018-03-31T14:26:23.000Z,98681
2018-03-31T14:27:23.000Z,98683
2018-03-31T14:28:23.000Z,98683
2018-03-31T14:29:23.000Z,98679
2018-03-31T14:31:23.000Z,98688
2018-03-31T14:33:23.000Z,98689
2018-03-31T14:35:23.000Z,98692
2018-03-31T14:36:23.000Z,98690
2018-03-31T14:38:23.000Z,98692
2018-03-31T14:40:23.000Z,98697
2018-03-31T14:42:23.000Z,98691
2018-03-31T14:43:52.000Z,98683
2018-03-31T14:45:23.000Z,98698
2018-03-31T14:47:23.000Z,98697
2018-03-31T14:49:23.000Z,98694
2018-03-31T14:50:23.000Z,98695
2018-03-31T14:52:23.000Z,98693
2018-03-31T14:54:23.000Z,98692
2018-03-31T14:56:08.000Z,98688
2018-03-31T14:57:23.000Z,98694
2018-03-31T14:59:23.000Z,98693
2018-03-31T15:01:23.000Z,98690
2018-03-31T15:02:23.000Z,98693
2018-03-31T15:04:23.000Z,98692
2018-03-31T15:05:23.000Z,98693
2018-03-31T15:06:23.000Z,98696
2018-03-31T15:08:23.000Z,98689
2018-03-31T15:10:23.000Z,98693
2018-03-31T15:11:23.000Z,98692
2018-03-31T15:13:23.000Z,98694
2018-03-31T15:15:23.000Z,98693
2018-03-31T15:16:23.000Z,98694
2018-03-31T15:18:23.000Z,98694
2018-03-31T15:20:23.000Z,98698
2018-03-31T15:22:08.000Z,98698
2018-03-31T15:23:08.000Z,98694
2018-03-31T15:24:23.000Z,98695
2018-03-31T15:26:23.000Z,98696
2018-03-31T15:28:08.000Z,98693
2018-03-31T15:29:23.000Z,98692
2018-03-31T15:31:23.000Z,98690
2018-03-31T15:33:23.000Z,98691
2018-03-31T15:35:23.000Z,98689
2018-03-31T15:37:23.000Z,98694
2018-03-31T15:38:23.000Z,98693
2018-03-31T15:40:23.000Z,98691
2018-03-31T15:41:23.000Z,98691
2018-03-31T15:43:23.000Z,98685
2018-03-31T15:45:23.000Z,98681
2018-03-31T15:46:23.000Z,98688
2018-03-31T15:48:23.000Z,98684
2018-03-31T15:49:23.000Z,98684
2018-03-31T15:51:23.000Z,98685
2018-03-31T15:53:23.000Z,98683
2018-03-31T15:55:23.000Z,98691
2018-03-31T15:57:23.000Z,98692
2018-03-31T15:59:23.000Z,98690
2018-03-31T16:00:23.000Z,98687
2018-03-31T16:02:23.000Z,98681
2018-03-31T16:03:23.000Z,98686
2018-03-31T16:05:23.000Z,98682
2018-03-31T16:07:23.000Z,98683
2018-03-31T16:09:23.000Z,98686
2018-03-31T16:11:23.000Z,98689
2018-03-31T16:12:23.000Z,98692
2018-03-31T16:13:23.000Z,98686
2018-03-31T16:15:23.000Z,98688
2018-03-31T16:17:23.000Z,98684
2018-03-31T16:19:23.000Z,98686
2018-03-31T16:20:23.000Z,98685
2018-03-31T16:21:23.000Z,98682
2018-03-31T16:23:23.000Z,98678
2018-03-31T16:24:23.000Z,98683
2018-03-31T16:26:23.000Z,98685
2018-03-31T16:28:23.000Z,98686
2018-03-31T16:30:23.000Z,98692
2018-03-31T16:32:23.000Z,98689
2018-03-31T16:33:23.000Z,98693
2018-03-31T16:35:23.000Z,98683
2018-03-31T16:37:08.000Z,98689
2018-03-31T16:38:23.000Z,98688
2018-03-31T16:40:08.000Z,98685
2018-03-31T16:41:23.000Z,98684
2018-03-31T16:43:23.000Z,98691
2018-03-31T16:45:23.000Z,98687
2018-03-31T16:46:52.000Z,98691
2018-03-31T16:48:23.000Z,98687
2018-03-31T16:49:23.000Z,98682
2018-03-31T16:51:08.000Z,98691
2018-03-31T16:52:23.000Z,98689
2018-03-31T16:53:23.000Z,98692
2018-03-31T16:54:23.000Z,98695
2018-03-31T16:56:23.000Z,98695
2018-03-31T16:58:23.000Z,98690
2018-03-31T17:00:23.000Z,98689
2018-03-31T17:02:23.000Z,98690
2018-03-31T17:03:23.000Z,98692
2018-03-31T17:04:52.000Z,98690
2018-03-31T17:06:23.000Z,98691
2018-03-31T17:08:23.000Z,98687
2018-03-31T17:10:23.000Z,98692
2018-03-31T17:12:23.000Z,98694
2018-03-31T17:14:23.000Z,98696
2018-03-31T17:16:08.000Z,98704
2018-03-31T17:17:08.000Z,98699
2018-03-31T17:18:23.000Z,98698
2018-03-31T17:20:08.000Z,98696
2018-03-31T17:21:23.000Z,98701
2018-03-31T17:23:08.000Z,98701
2018-03-31T17:24:23.000Z,98704
2018-03-31T17:26:08.000Z,98707
2018-03-31T17:27:23.000Z,98705
2018-03-31T17:29:23.000Z,98711
2018-03-31T17:31:23.000Z,98702
2018-03-31T17:33:08.000Z,98710
2018-03-31T17:34:23.000Z,98708
2018-03-31T17:36:23.000Z,98712
2018-03-31T17:38:23.000Z,98711
2018-03-31T17:39:23.000Z,98710
2018-03-31T17:41:23.000Z,98710
2018-03-31T17:43:23.000Z,98715
2018-03-31T17:45:23.000Z,98710
2018-03-31T17:46:23.000Z,98721
2018-03-31T17:48:08.000Z,98720
2018-03-31T17:49:23.000Z,98719
2018-03-31T17:51:08.000Z,98718
2018-03-31T17:52:23.000Z,98717
2018-03-31T17:54:23.000Z,98719
2018-03-31T17:56:23.000Z,98722
2018-03-31T17:58:23.000Z,98729
2018-03-31T18:00:08.000Z,98725
2018-03-31T18:01:23.000Z,98738
2018-03-31T18:03:08.000Z,98735
2018-03-31T18:04:23.000Z,98735
2018-03-31T18:06:23.000Z,98740
2018-03-31T18:08:23.000Z,98739
2018-03-31T18:09:23.000Z,98738
2018-03-31T18:11:23.000Z,98729
2018-03-31T18:13:23.000Z,98742
2018-03-31T18:14:53.000Z,98740
2018-03-31T18:16:23.000Z,98738
2018-03-31T18:18:23.000Z,98742
2018-03-31T18:19:23.000Z,98747
2018-03-31T18:21:08.000Z,98750
2018-03-31T18:22:23.000Z,98744
2018-03-31T18:24:08.000Z,98749
2018-03-31T18:25:23.000Z,98754
2018-03-31T18:27:23.000Z,98749
2018-03-31T18:29:23.000Z,98755
2018-03-31T18:31:23.000Z,98757
2018-03-31T18:33:23.000Z,98753
2018-03-31T18:35:23.000Z,98760
2018-03-31T18:36:23.000Z,98758
2018-03-31T18:38:23.000Z,98764
2018-03-31T18:40:23.000Z,98769
2018-03-31T18:42:08.000Z,98767
2018-03-31T18:43:08.000Z,98772
2018-03-31T18:44:23.000Z,98774
2018-03-31T18:45:23.000Z,98775
2018-03-31T18:47:23.000Z,98780
2018-03-31T18:49:08.000Z,98782
2018-03-31T18:50:23.000Z,98776
2018-03-31T18:51:23.000Z,98782
2018-03-31T18:53:23.000Z,98781
2018-03-31T18:55:23.000Z,98785
2018-03-31T18:57:23.000Z,98786
2018-03-31T18:59:23.000Z,98787
2018-03-31T19:01:23.000Z,98791
2018-03-31T19:02:23.000Z,98794
2018-03-31T19:04:08.000Z,98794
2018-03-31T19:05:23.000Z,98794
2018-03-31T19:07:23.000Z,98798
2018-03-31T19:09:08.000Z,98805
2018-03-31T19:10:23.000Z,98799
2018-03-31T19:12:23.000Z,98805
2018-03-31T19:14:08.000Z,98806
2018-03-31T19:15:23.000Z,98809
2018-03-31T19:16:23.000Z,98807
2018-03-31T19:18:08.000Z,98812
2018-03-31T19:19:23.000Z,98810
2018-03-31T19:21:23.000Z,98810
2018-03-31T19:23:23.000Z,98810
2018-03-31T19:25:23.000Z,98817
2018-03-31T19:26:23.000Z,98817
2018-03-31T19:28:23.000Z,98814
2018-03-31T19:30:08.000Z,98816
2018-03-31T19:31:23.000Z,98817
2018-03-31T19:32:23.000Z,98811
2018-03-31T19:34:23.000Z,98817
2018-03-31T19:36:23.000Z,98821
2018-03-31T19:38:23.000Z,98827
2018-03-31T19:39:23.000Z,98829
2018-03-31T19:41:23.000Z,98832
2018-03-31T19:43:23.000Z,98837
2018-03-31T19:45:23.000Z,98840
2018-03-31T19:47:23.000Z,98836
2018-03-31T19:49:08.000Z,98842
2018-03-31T19:50:23.000Z,98839
2018-03-31T19:51:23.000Z,98841
2018-03-31T19:52:23.000Z,98841
2018-03-31T19:54:23.000Z,98842
2018-03-31T19:56:23.000Z,98845
2018-03-31T19:57:23.000Z,98845
2018-03-31T19:58:53.000Z,98794
2018-03-31T20:00:07.000Z,98847
2018-03-31T20:01:23.000Z,98846
2018-03-31T20:02:23.000Z,98847
2018-03-31T20:04:23.000Z,98853
2018-03-31T20:06:07.000Z,98851
2018-03-31T20:07:23.000Z,98855
2018-03-31T20:09:23.000Z,98852
2018-03-31T20:10:23.000Z,98854
2018-03-31T20:12:23.000Z,98853
2018-03-31T20:14:23.000Z,98853
2018-03-31T20:15:23.000Z,98852
2018-03-31T20:17:23.000Z,98859
2018-03-31T20:19:23.000Z,98857
2018-03-31T20:21:23.000Z,98856
2018-03-31T20:23:07.000Z,98856
2018-03-31T20:24:23.000Z,98856
2018-03-31T20:26:07.000Z,98855
2018-03-31T20:27:23.000Z,98854
2018-03-31T20:28:23.000Z,98852
2018-03-31T20:30:23.000Z,98860
2018-03-31T20:31:23.000Z,98859
2018-03-31T20:33:23.000Z,98858
2018-03-31T20:35:23.000Z,98859
2018-03-31T20:37:23.000Z,98864
2018-03-31T20:39:23.000Z,98860
2018-03-31T20:41:23.000Z,98877
2018-03-31T20:43:23.000Z,98882
2018-03-31T20:45:08.000Z,98894
2018-03-31T20:46:23.000Z,98902
2018-03-31T20:47:23.000Z,98897
2018-03-31T20:48:23.000Z,98896
2018-03-31T20:50:23.000Z,98897
2018-03-31T20:52:23.000Z,98898
2018-03-31T20:53:23.000Z,98897
2018-03-31T20:55:23.000Z,98901
2018-03-31T20:57:23.000Z,98905
2018-03-31T20:58:23.000Z,98908
2018-03-31T21:00:22.000Z,98905
2018-03-31T21:02:22.000Z,98909
2018-03-31T21:04:22.000Z,98909
2018-03-31T21:05:22.000Z,98910
2018-03-31T21:07:22.000Z,98917
2018-03-31T21:09:22.000Z,98912
2018-03-31T21:10:22.000Z,98915
2018-03-31T21:11:22.000Z,98922
2018-03-31T21:13:22.000Z,98921
2018-03-31T21:14:22.000Z,98921
2018-03-31T21:16:22.000Z,98926
2018-03-31T21:18:07.000Z,98929
2018-03-31T21:19:22.000Z,98929
2018-03-31T21:21:22.000Z,98929
2018-03-31T21:23:22.000Z,98935
2018-03-31T21:24:22.000Z,98935
2018-03-31T21:26:22.000Z,98936
2018-03-31T21:28:22.000Z,98936
2018-03-31T21:29:22.000Z,98939
2018-03-31T21:31:22.000Z,98930
2018-03-31T21:32:22.000Z,98939
2018-03-31T21:34:22.000Z,98937
2018-03-31T21:35:22.000Z,98941
2018-03-31T21:37:22.000Z,98942
2018-03-31T21:38:22.000Z,98940
2018-03-31T21:40:07.000Z,98938
2018-03-31T21:41:22.000Z,98941